createdAt,value
2023-01-19T00:00:54.868Z,4.28
2023-01-19T00:06:58.292Z,4.22
2023-01-19T00:13:03.502Z,4.40
2023-01-19T00:19:07.046Z,4.28
2023-01-19T00:25:10.883Z,4.70
2023-01-19T00:31:15.698Z,4.15
2023-01-19T00:37:19.268Z,4.68
2023-01-19T00:43:22.709Z,4.15
2023-01-19T00:49:27.486Z,4.05
2023-01-19T00:55:30.951Z,4.03
2023-01-19T01:01:45.417Z,4.50
2023-01-19T01:07:51.434Z,3.50
2023-01-19T01:13:54.897Z,4.03
2023-01-19T01:19:59.015Z,4.05
2023-01-19T01:26:03.810Z,4.40
2023-01-19T01:32:07.294Z,4.32
2023-01-19T01:38:11.185Z,4.22
2023-01-19T01:44:33.383Z,4.57
2023-01-19T01:51:00.637Z,4.20
2023-01-19T01:57:05.636Z,3.97
2023-01-19T02:03:09.178Z,3.90
2023-01-19T02:09:31.521Z,4.30
2023-01-19T02:15:35.030Z,3.72
2023-01-19T02:21:40.499Z,2.58
2023-01-19T02:27:45.250Z,2.50
2023-01-19T02:33:48.942Z,3.58
2023-01-19T02:39:54.261Z,2.97
2023-01-19T02:45:59.077Z,3.95
2023-01-19T02:52:02.551Z,4.20
2023-01-19T02:58:08.136Z,4.25
2023-01-19T03:04:16.057Z,3.95
2023-01-19T03:10:22.503Z,3.78
2023-01-19T03:16:27.431Z,3.67
2023-01-19T03:22:33.009Z,3.85
2023-01-19T03:28:37.502Z,4.65
2023-01-19T03:34:41.633Z,5.03
2023-01-19T03:40:47.611Z,4.53
2023-01-19T03:46:51.433Z,4.05
2023-01-19T03:53:07.400Z,4.57
2023-01-19T03:59:12.275Z,3.70
2023-01-19T04:05:15.744Z,4.43
2023-01-19T04:11:19.216Z,3.97
2023-01-19T04:17:23.953Z,4.18
2023-01-19T04:23:27.354Z,4.38
2023-01-19T04:29:30.707Z,4.18
2023-01-19T04:35:35.773Z,4.90
2023-01-19T04:41:39.122Z,4.82
2023-01-19T04:47:43.272Z,4.80
2023-01-19T04:53:48.035Z,5.03
2023-01-19T04:59:51.455Z,6.68
2023-01-19T05:05:54.883Z,7.18
2023-01-19T05:11:59.676Z,5.85
2023-01-19T05:18:03.089Z,5.50
2023-01-19T05:24:06.608Z,5.15
2023-01-19T05:30:13.347Z,5.93
2023-01-19T05:36:16.727Z,5.32
2023-01-19T05:42:20.176Z,7.68
2023-01-19T05:48:24.944Z,6.25
2023-01-19T05:54:28.646Z,6.50
2023-01-19T06:00:32.080Z,6.47
2023-01-19T06:06:36.854Z,6.45
2023-01-19T06:12:42.224Z,5.32
2023-01-19T06:18:45.667Z,5.03
2023-01-19T06:24:50.550Z,5.93
2023-01-19T06:30:55.374Z,5.10
2023-01-19T06:36:59.012Z,5.47
2023-01-19T06:43:04.025Z,5.57
2023-01-19T06:49:07.659Z,5.47
2023-01-19T06:55:11.969Z,5.13
2023-01-19T07:01:16.971Z,5.00
2023-01-19T07:07:20.881Z,4.80
2023-01-19T07:13:25.299Z,5.63
2023-01-19T07:19:30.190Z,6.03
2023-01-19T07:25:33.656Z,5.75
2023-01-19T07:31:37.213Z,6.22
2023-01-19T07:37:42.142Z,6.40
2023-01-19T07:43:45.524Z,5.95
2023-01-19T07:49:48.923Z,5.60
2023-01-19T07:55:57.630Z,5.50
2023-01-19T08:02:01.347Z,6.40
2023-01-19T08:08:05.588Z,5.38
2023-01-19T08:14:10.778Z,5.72
2023-01-19T08:20:14.842Z,5.63
2023-01-19T08:26:23.868Z,5.75
2023-01-19T08:32:28.720Z,5.78
2023-01-19T08:38:32.134Z,7.63
2023-01-19T08:44:36.622Z,6.63
2023-01-19T08:50:44.221Z,7.47
2023-01-19T08:56:47.875Z,5.80
2023-01-19T09:02:51.403Z,5.32
2023-01-19T09:08:57.545Z,5.30
2023-01-19T09:15:01.207Z,5.40
2023-01-19T09:21:04.983Z,5.60
2023-01-19T09:27:09.829Z,5.93
2023-01-19T09:33:13.992Z,6.60
2023-01-19T09:39:17.529Z,7.03
2023-01-19T09:45:27.861Z,6.38
2023-01-19T09:51:33.940Z,5.85
2023-01-19T09:57:37.586Z,6.47
2023-01-19T10:03:43.255Z,6.00
2023-01-19T10:09:50.789Z,5.75
2023-01-19T10:15:58.177Z,6.43
2023-01-19T10:22:20.359Z,6.20
2023-01-19T10:28:25.918Z,6.05
2023-01-19T10:34:29.606Z,5.70
2023-01-19T10:40:35.803Z,6.32
2023-01-19T10:46:40.865Z,5.35
2023-01-19T10:52:44.793Z,4.97
2023-01-19T10:58:49.610Z,5.15
2023-01-19T11:04:54.117Z,5.13
2023-01-19T11:10:59.712Z,6.35
2023-01-19T11:17:04.529Z,5.47
2023-01-19T11:23:09.317Z,6.03
2023-01-19T11:29:21.036Z,5.40
2023-01-19T11:35:34.759Z,5.45
2023-01-19T11:41:38.974Z,3.15
2023-01-19T11:47:44.567Z,4.30
2023-01-19T11:53:53.311Z,4.53
2023-01-19T11:59:58.687Z,6.15
2023-01-19T12:06:03.491Z,4.63
2023-01-19T12:12:09.585Z,6.22
2023-01-19T12:18:15.861Z,7.50
2023-01-19T12:24:24.874Z,7.82
2023-01-19T12:30:31.452Z,8.15
2023-01-19T12:36:38.744Z,6.95
2023-01-19T12:42:46.192Z,7.78
2023-01-19T12:48:50.984Z,5.93
2023-01-19T12:54:57.289Z,6.38
2023-01-19T13:01:18.421Z,5.68
2023-01-19T13:07:23.244Z,5.68
2023-01-19T13:13:27.680Z,6.30
2023-01-19T13:19:40.031Z,6.28
2023-01-19T13:25:46.015Z,6.30
2023-01-19T13:31:50.365Z,6.13
2023-01-19T13:37:53.844Z,6.63
2023-01-19T13:44:01.082Z,5.93
2023-01-19T13:50:04.751Z,5.40
2023-01-19T13:56:10.406Z,5.97
2023-01-19T14:02:15.493Z,5.97
2023-01-19T14:08:19.367Z,6.28
2023-01-19T14:14:26.483Z,5.93
2023-01-19T14:20:36.753Z,5.93
2023-01-19T14:26:49.566Z,6.30
2023-01-19T14:32:53.920Z,6.22
2023-01-19T14:39:01.280Z,5.93
2023-01-19T14:45:06.410Z,5.18
2023-01-19T14:51:10.037Z,5.80
2023-01-19T14:57:15.168Z,5.30
2023-01-19T15:03:18.704Z,5.05
2023-01-19T15:09:22.294Z,5.07
2023-01-19T15:15:31.208Z,5.57
2023-01-19T15:21:34.733Z,5.40
2023-01-19T15:27:38.141Z,8.05
2023-01-19T15:33:42.880Z,8.48
2023-01-19T15:39:46.437Z,8.05
2023-01-19T15:45:51.283Z,6.88
2023-01-19T15:51:56.172Z,7.53
2023-01-19T15:58:02.274Z,7.93
2023-01-19T16:04:07.353Z,8.55
2023-01-19T16:10:13.170Z,9.02
2023-01-19T16:16:17.693Z,8.52
2023-01-19T16:22:21.131Z,8.35
2023-01-19T16:28:25.944Z,9.95
2023-01-19T16:34:29.658Z,10.25
2023-01-19T16:40:33.084Z,10.80
2023-01-19T16:46:38.837Z,10.90
2023-01-19T16:52:42.427Z,11.63
2023-01-19T16:58:45.920Z,12.40
2023-01-19T17:04:50.667Z,13.40
2023-01-19T17:10:55.825Z,12.15
2023-01-19T17:17:00.653Z,13.02
2023-01-19T17:23:05.504Z,12.80
2023-01-19T17:29:10.245Z,15.80
2023-01-19T17:35:13.666Z,16.10
2023-01-19T17:41:19.145Z,16.00
2023-01-19T17:47:25.939Z,16.77
2023-01-19T17:53:29.793Z,15.98
2023-01-19T17:59:34.761Z,16.00
2023-01-19T18:05:38.169Z,17.70
2023-01-19T18:11:42.785Z,17.45
2023-01-19T18:17:47.636Z,20.27
2023-01-19T18:23:51.591Z,19.30
2023-01-19T18:29:54.951Z,17.65
2023-01-19T18:35:59.816Z,9.25
2023-01-19T18:42:03.851Z,10.73
2023-01-19T18:48:07.751Z,9.20
2023-01-19T18:54:12.717Z,8.55
2023-01-19T19:00:16.472Z,3.70
2023-01-19T19:06:20.943Z,2.85
2023-01-19T19:12:25.856Z,3.40
2023-01-19T19:18:29.275Z,4.03
2023-01-19T19:24:33.523Z,5.88
2023-01-19T19:30:39.100Z,3.33
2023-01-19T19:36:42.885Z,2.83
2023-01-19T19:42:46.302Z,3.00
2023-01-19T19:48:51.195Z,9.15
2023-01-19T19:54:55.253Z,4.70
2023-01-19T20:01:03.040Z,5.60
2023-01-19T20:07:07.963Z,3.72
2023-01-19T20:13:28.892Z,6.68
2023-01-19T20:19:32.719Z,10.00
2023-01-19T20:25:41.026Z,10.40
2023-01-19T20:31:46.244Z,16.20
2023-01-19T20:37:49.672Z,14.18
2023-01-19T20:43:54.456Z,13.13
2023-01-19T20:49:57.935Z,13.18
2023-01-19T20:56:06.068Z,17.40
2023-01-19T21:02:14.242Z,16.58
2023-01-19T21:08:18.271Z,19.83
2023-01-19T21:14:21.774Z,19.25
2023-01-19T21:20:26.540Z,15.80
2023-01-19T21:26:30.970Z,14.95
2023-01-19T21:32:34.576Z,14.43
2023-01-19T21:38:40.757Z,15.68
2023-01-19T21:44:44.180Z,15.18
2023-01-19T21:50:47.605Z,15.68
2023-01-19T21:56:52.826Z,16.88
2023-01-19T22:03:03.806Z,15.27
2023-01-19T22:09:08.107Z,14.75
2023-01-19T22:15:13.453Z,14.13
2023-01-19T22:21:17.867Z,13.55
2023-01-19T22:27:21.507Z,12.85
2023-01-19T22:33:26.347Z,13.27
2023-01-19T22:39:29.916Z,12.27
2023-01-19T22:45:33.300Z,11.95
2023-01-19T22:51:38.146Z,12.02
2023-01-19T22:57:41.562Z,11.80
2023-01-19T23:03:44.974Z,11.70
2023-01-19T23:09:49.734Z,11.63
2023-01-19T23:15:53.235Z,11.15
2023-01-19T23:21:56.640Z,11.45
2023-01-19T23:28:01.376Z,11.85
2023-01-19T23:34:05.637Z,11.77
2023-01-19T23:40:09.824Z,10.30
2023-01-19T23:46:15.404Z,10.27
2023-01-19T23:52:18.924Z,11.68
2023-01-19T23:58:22.328Z,11.70
